Time;durP1;ratioP1;P1;durP2;ratioP2;P2;SDS_P1;SDS_P2;PMS_P1;PMS_P2;Temp;Humidity;BMP_temperature;BMP_pressure;BME280_temperature;BME280_humidity;BME280_pressure;Samples;Min_cycle;Max_cycle;Signal;HPM_P1;HPM_P2
2023/05/22 00:09:15;;;;;;;16.42;13.40;;;;;;;;;;6198598;23;20013;-84
2023/05/22 00:11:42;;;;;;;18.08;12.68;;;;;;;;;;6158550;23;20029;-84
2023/05/22 00:14:08;;;;;;;18.75;12.80;;;;;;;;;;6158199;23;19996;-86
2023/05/22 00:16:34;;;;;;;17.10;13.30;;;;;;;;;;6135168;23;20013;-86
2023/05/22 00:19:03;;;;;;;18.08;13.00;;;;;;;;;;6158844;23;19986;-84
2023/05/22 00:21:33;;;;;;;17.65;13.27;;;;;;;;;;6184533;23;20010;-86
2023/05/22 00:24:02;;;;;;;16.80;13.43;;;;;;;;;;6184884;23;19990;-85
2023/05/22 00:26:30;;;;;;;17.58;13.43;;;;;;;;;;6160159;23;19994;-86
2023/05/22 02:20:58;;;;;;;17.90;14.00;;;;;;;;;;6208989;23;20005;-85
2023/05/22 02:23:28;;;;;;;19.40;14.40;;;;;;;;;;6210688;23;20017;-84
2023/05/22 02:25:54;;;;;;;17.55;14.45;;;;;;;;;;6185194;23;20232;-85
2023/05/22 02:28:21;;;;;;;19.80;13.65;;;;;;;;;;6210584;23;20004;-84
2023/05/22 02:30:47;;;;;;;20.23;14.68;;;;;;;;;;6212479;23;19997;-85
2023/05/22 02:33:16;;;;;;;17.58;13.90;;;;;;;;;;6184883;23;20027;-85
2023/05/22 02:35:43;;;;;;;16.30;13.65;;;;;;;;;;6211189;23;20013;-84
2023/05/22 02:38:10;;;;;;;18.17;15.25;;;;;;;;;;6184580;23;20013;-85
2023/05/22 02:40:36;;;;;;;20.20;14.23;;;;;;;;;;6160922;23;20020;-85
2023/05/22 02:43:03;;;;;;;17.77;14.50;;;;;;;;;;6184781;23;19989;-85
2023/05/22 02:45:29;;;;;;;18.38;14.18;;;;;;;;;;6211064;23;19993;-84
2023/05/22 02:47:55;;;;;;;17.88;14.55;;;;;;;;;;6185336;23;19997;-86
2023/05/22 02:50:21;;;;;;;22.73;14.70;;;;;;;;;;6210447;23;20001;-86
2023/05/22 02:52:49;;;;;;;17.17;14.02;;;;;;;;;;6185174;23;19989;-86
2023/05/22 02:55:15;;;;;;;17.70;13.35;;;;;;;;;;6186066;23;20037;-86
2023/05/22 02:57:41;;;;;;;18.88;14.82;;;;;;;;;;6184703;23;20005;-85
2023/05/22 03:00:10;;;;;;;18.02;13.82;;;;;;;;;;6184552;23;20015;-85
2023/05/22 03:02:37;;;;;;;18.92;14.40;;;;;;;;;;6210872;23;20032;-84
2023/05/22 03:05:03;;;;;;;19.08;14.35;;;;;;;;;;6184716;23;20008;-85
2023/05/22 03:07:30;;;;;;;17.85;13.68;;;;;;;;;;6210483;23;20024;-86
2023/05/22 03:09:57;;;;;;;18.50;14.95;;;;;;;;;;6184733;23;19989;-85
2023/05/22 03:12:23;;;;;;;20.02;14.65;;;;;;;;;;6210992;23;20012;-85
2023/05/22 03:14:49;;;;;;;18.38;13.90;;;;;;;;;;6184694;23;19998;-85
2023/05/22 03:17:15;;;;;;;16.73;13.90;;;;;;;;;;6211123;23;19989;-85
2023/05/22 03:19:42;;;;;;;16.85;13.95;;;;;;;;;;6210292;22;20016;-85
2023/05/22 03:22:08;;;;;;;18.45;14.35;;;;;;;;;;6210673;22;20008;-85
2023/05/22 03:24:34;;;;;;;20.85;14.18;;;;;;;;;;6210335;22;20001;-85
2023/05/22 03:27:00;;;;;;;18.50;14.48;;;;;;;;;;6211335;22;19993;-85
2023/05/22 03:29:27;;;;;;;19.38;14.35;;;;;;;;;;6211304;22;20004;-83
2023/05/22 03:31:54;;;;;;;24.20;15.93;;;;;;;;;;6185450;22;20009;-85
2023/05/22 03:34:21;;;;;;;22.83;15.82;;;;;;;;;;6185657;22;19989;-85
2023/05/22 03:36:47;;;;;;;23.02;16.02;;;;;;;;;;6210563;22;19997;-85
2023/05/22 03:39:14;;;;;;;19.45;13.98;;;;;;;;;;6211768;22;20012;-84
2023/05/22 03:41:40;;;;;;;21.95;15.23;;;;;;;;;;6185861;22;20001;-85
2023/05/22 03:44:06;;;;;;;21.98;14.80;;;;;;;;;;6185899;22;19985;-85
2023/05/22 03:46:33;;;;;;;17.42;13.90;;;;;;;;;;6186431;22;19993;-84
2023/05/22 03:48:59;;;;;;;18.25;13.98;;;;;;;;;;6210908;22;19997;-83
2023/05/22 03:51:25;;;;;;;17.23;13.40;;;;;;;;;;6200430;22;20029;-79
2023/05/22 03:53:51;;;;;;;20.88;14.73;;;;;;;;;;6163067;23;20035;-80
2023/05/22 03:56:17;;;;;;;19.77;14.13;;;;;;;;;;6189100;23;19997;-80
2023/05/22 03:58:43;;;;;;;20.08;14.00;;;;;;;;;;6162553;23;20005;-79
2023/05/22 04:01:10;;;;;;;19.25;14.13;;;;;;;;;;6162189;23;20001;-81
2023/05/22 04:03:39;;;;;;;21.08;14.40;;;;;;;;;;6188450;23;20004;-80
2023/05/22 04:06:06;;;;;;;20.60;14.75;;;;;;;;;;6188295;23;20028;-79
2023/05/22 04:08:32;;;;;;;23.35;14.05;;;;;;;;;;6136358;23;20284;-79
2023/05/22 04:10:58;;;;;;;21.77;14.45;;;;;;;;;;6161651;23;20008;-78
2023/05/22 04:13:25;;;;;;;19.77;14.30;;;;;;;;;;6161441;23;20028;-82
2023/05/22 04:15:52;;;;;;;18.00;14.23;;;;;;;;;;6160073;23;20043;-80
2023/05/22 04:18:18;;;;;;;17.35;13.85;;;;;;;;;;6161963;23;20459;-79
2023/05/22 04:20:44;;;;;;;16.05;12.73;;;;;;;;;;6187764;23;20009;-79
2023/05/22 04:23:10;;;;;;;18.13;13.82;;;;;;;;;;6188703;23;20001;-80
2023/05/22 04:25:36;;;;;;;19.80;14.63;;;;;;;;;;6192849;23;20001;-82
2023/05/22 04:28:02;;;;;;;19.58;13.88;;;;;;;;;;6189652;23;20009;-78
2023/05/22 04:30:29;;;;;;;21.00;14.07;;;;;;;;;;6187646;23;20072;-79
2023/05/22 04:32:56;;;;;;;18.98;13.85;;;;;;;;;;6187149;23;20050;-79
2023/05/22 04:35:22;;;;;;;20.73;14.82;;;;;;;;;;6160707;23;20001;-79
2023/05/22 04:37:49;;;;;;;19.70;14.90;;;;;;;;;;6159745;23;20002;-79
2023/05/22 04:40:15;;;;;;;22.25;14.98;;;;;;;;;;6185373;23;19993;-79
2023/05/22 04:42:41;;;;;;;21.17;14.68;;;;;;;;;;6182594;23;20009;-78
2023/05/22 04:45:07;;;;;;;18.90;14.57;;;;;;;;;;6157340;23;20001;-80
2023/05/22 04:47:33;;;;;;;20.83;14.88;;;;;;;;;;6184508;23;20055;-79
2023/05/22 04:50:01;;;;;;;18.95;14.63;;;;;;;;;;6183978;23;20036;-78
2023/05/22 04:52:27;;;;;;;22.65;14.35;;;;;;;;;;6184579;23;20112;-80
2023/05/22 04:54:54;;;;;;;21.52;14.65;;;;;;;;;;6184629;23;20028;-79
2023/05/22 04:57:20;;;;;;;23.73;15.15;;;;;;;;;;6185077;23;20001;-79
2023/05/22 04:59:46;;;;;;;20.48;15.25;;;;;;;;;;6182673;23;20032;-78
2023/05/22 05:02:13;;;;;;;23.15;15.30;;;;;;;;;;6184438;23;20004;-81
2023/05/22 05:04:39;;;;;;;17.85;14.35;;;;;;;;;;6183677;23;20008;-79
2023/05/22 05:07:05;;;;;;;19.60;15.10;;;;;;;;;;6185426;23;20051;-79
2023/05/22 05:09:32;;;;;;;19.90;15.02;;;;;;;;;;6183119;23;20016;-79
2023/05/22 05:11:58;;;;;;;17.85;14.40;;;;;;;;;;6187656;23;20043;-80
2023/05/22 05:14:24;;;;;;;23.75;15.38;;;;;;;;;;6215627;23;20007;-80
2023/05/22 05:16:53;;;;;;;21.63;14.63;;;;;;;;;;6216106;23;20337;-80
2023/05/22 05:19:20;;;;;;;21.25;15.25;;;;;;;;;;6189578;23;20075;-79
2023/05/22 05:21:48;;;;;;;26.23;16.17;;;;;;;;;;6213962;23;20009;-84
2023/05/22 05:24:14;;;;;;;24.08;15.15;;;;;;;;;;6186928;23;20050;-80
2023/05/22 05:26:40;;;;;;;25.83;15.45;;;;;;;;;;6186760;23;20011;-80
2023/05/22 05:29:06;;;;;;;22.05;14.90;;;;;;;;;;6186460;23;20075;-79
2023/05/22 05:31:32;;;;;;;20.25;14.65;;;;;;;;;;6213771;23;20043;-79
2023/05/22 05:33:58;;;;;;;20.73;14.40;;;;;;;;;;6185756;23;20154;-79
2023/05/22 05:36:24;;;;;;;23.35;14.23;;;;;;;;;;6186801;23;20042;-79
2023/05/22 05:38:53;;;;;;;21.65;14.80;;;;;;;;;;6214046;23;20000;-82
2023/05/22 05:41:20;;;;;;;20.08;14.18;;;;;;;;;;6187697;23;20005;-81
2023/05/22 05:43:46;;;;;;;20.08;13.20;;;;;;;;;;6189169;23;20036;-81
2023/05/22 05:46:12;;;;;;;18.35;14.13;;;;;;;;;;6214486;23;20482;-83
2023/05/22 05:48:39;;;;;;;21.65;14.23;;;;;;;;;;6213185;23;20348;-81
2023/05/22 05:51:05;;;;;;;19.80;14.45;;;;;;;;;;6187712;23;20004;-79
2023/05/22 05:53:31;;;;;;;18.88;14.55;;;;;;;;;;6186673;23;20087;-82
2023/05/22 05:55:57;;;;;;;21.38;14.50;;;;;;;;;;6212196;23;20327;-79
2023/05/22 05:58:23;;;;;;;20.08;13.55;;;;;;;;;;6212727;23;20012;-79
2023/05/22 06:00:49;;;;;;;21.13;14.18;;;;;;;;;;6184627;23;20009;-79
2023/05/22 06:03:16;;;;;;;22.45;15.50;;;;;;;;;;6186091;23;20346;-78
2023/05/22 06:05:44;;;;;;;24.40;15.50;;;;;;;;;;6211368;23;20448;-83
2023/05/22 06:08:10;;;;;;;19.92;15.13;;;;;;;;;;6213511;23;20000;-81
2023/05/22 06:10:37;;;;;;;19.55;14.43;;;;;;;;;;6212163;23;20008;-81
2023/05/22 06:13:03;;;;;;;21.13;15.43;;;;;;;;;;6185256;23;20314;-80
2023/05/22 06:15:30;;;;;;;28.83;14.82;;;;;;;;;;6184600;23;20051;-81
2023/05/22 06:18:01;;;;;;;21.63;14.25;;;;;;;;;;6210686;23;20016;-80
2023/05/22 06:20:27;;;;;;;23.63;15.07;;;;;;;;;;6210789;23;20007;-80
2023/05/22 06:22:53;;;;;;;23.15;15.23;;;;;;;;;;6212362;23;20012;-82
2023/05/22 06:25:19;;;;;;;20.42;15.18;;;;;;;;;;6211612;23;20001;-80
2023/05/22 06:27:45;;;;;;;19.88;15.10;;;;;;;;;;6211849;23;20271;-79
2023/05/22 06:30:12;;;;;;;24.70;14.57;;;;;;;;;;6208394;23;20067;-80
2023/05/22 06:32:38;;;;;;;21.92;14.32;;;;;;;;;;6209355;23;20031;-79
2023/05/22 06:35:08;;;;;;;19.80;14.23;;;;;;;;;;6212830;23;20008;-79
2023/05/22 06:37:37;;;;;;;21.42;13.30;;;;;;;;;;6211197;23;20005;-80
2023/05/22 06:40:04;;;;;;;21.53;14.53;;;;;;;;;;6186979;23;20345;-80
2023/05/22 06:42:30;;;;;;;21.33;14.60;;;;;;;;;;6183887;23;20008;-84
2023/05/22 06:44:56;;;;;;;20.50;14.57;;;;;;;;;;6184983;23;20001;-79
2023/05/22 06:47:25;;;;;;;19.52;14.73;;;;;;;;;;6185417;23;20479;-79
2023/05/22 06:49:51;;;;;;;20.65;14.00;;;;;;;;;;6211514;23;20028;-79
2023/05/22 06:52:17;;;;;;;20.42;14.75;;;;;;;;;;6184701;23;20435;-82
2023/05/22 06:55:19;;;;;;;20.77;15.27;;;;;;;;;;6185990;23;20087;-83
2023/05/22 06:57:45;;;;;;;20.15;14.38;;;;;;;;;;6219515;23;20444;-83
2023/05/22 07:00:11;;;;;;;22.30;14.88;;;;;;;;;;6186067;23;20023;-81
2023/05/22 07:02:47;;;;;;;20.40;15.27;;;;;;;;;;6185594;23;20013;-81
2023/05/22 07:05:13;;;;;;;19.75;14.20;;;;;;;;;;6212924;23;20337;-79
2023/05/22 07:07:39;;;;;;;20.77;14.13;;;;;;;;;;6186411;23;20078;-81
2023/05/22 07:10:08;;;;;;;20.50;14.73;;;;;;;;;;6216244;23;20028;-83
2023/05/22 07:12:34;;;;;;;20.33;13.88;;;;;;;;;;6215461;23;20004;-80
2023/05/22 07:18:09;;;;;;;18.25;14.20;;;;;;;;;;6200083;23;20005;-82
2023/05/22 07:20:41;;;;;;;21.92;14.13;;;;;;;;;;6187442;23;20054;-82
2023/05/22 07:23:29;;;;;;;23.15;14.60;;;;;;;;;;6189448;23;20000;-81
2023/05/22 07:25:55;;;;;;;18.98;12.13;;;;;;;;;;6217055;23;20007;-80
2023/05/22 07:28:31;;;;;;;19.73;14.30;;;;;;;;;;6189802;23;19997;-81
2023/05/22 07:30:57;;;;;;;17.67;13.48;;;;;;;;;;6220485;23;20009;-84
2023/05/22 07:33:24;;;;;;;21.60;14.27;;;;;;;;;;6208895;23;20009;-83
2023/05/22 07:35:53;;;;;;;23.73;14.45;;;;;;;;;;6224549;23;20015;-82
2023/05/22 07:38:19;;;;;;;21.30;14.07;;;;;;;;;;6192647;23;20008;-82
2023/05/22 07:40:46;;;;;;;21.83;13.70;;;;;;;;;;6190811;23;20008;-82
2023/05/22 07:43:14;;;;;;;26.52;14.57;;;;;;;;;;6190384;23;20000;-82
2023/05/22 07:45:40;;;;;;;24.33;14.20;;;;;;;;;;6190502;23;20000;-83
2023/05/22 07:48:12;;;;;;;22.80;14.50;;;;;;;;;;6217682;23;20436;-82
2023/05/22 07:50:38;;;;;;;22.77;14.18;;;;;;;;;;6192837;23;20019;-83
2023/05/22 07:53:11;;;;;;;25.92;16.58;;;;;;;;;;6216230;23;20001;-82
2023/05/22 07:55:42;;;;;;;25.13;15.73;;;;;;;;;;6189477;23;20318;-83
2023/05/22 07:58:09;;;;;;;27.42;16.58;;;;;;;;;;6216371;23;20016;-82
2023/05/22 08:00:38;;;;;;;23.98;14.80;;;;;;;;;;6192038;23;20024;-84
2023/05/22 08:03:05;;;;;;;22.73;15.90;;;;;;;;;;6199670;23;20441;-83
2023/05/22 08:05:31;;;;;;;25.85;14.73;;;;;;;;;;6189285;23;20073;-82
2023/05/22 08:07:57;;;;;;;24.33;15.00;;;;;;;;;;6215541;23;20001;-82
2023/05/22 08:10:23;;;;;;;25.50;15.23;;;;;;;;;;6185209;23;20009;-83
2023/05/22 08:12:49;;;;;;;23.48;15.93;;;;;;;;;;6185407;23;20072;-84
2023/05/22 08:15:15;;;;;;;22.75;14.50;;;;;;;;;;6187106;23;20005;-82
2023/05/22 08:17:41;;;;;;;28.08;14.57;;;;;;;;;;6184310;23;20012;-87
2023/05/22 08:20:08;;;;;;;24.02;15.15;;;;;;;;;;6185911;23;20001;-82
2023/05/22 08:22:34;;;;;;;22.05;15.20;;;;;;;;;;6185732;23;20005;-82
2023/05/22 08:25:00;;;;;;;23.98;14.93;;;;;;;;;;6186368;23;20005;-82
2023/05/22 08:27:26;;;;;;;25.38;15.93;;;;;;;;;;6190259;23;20071;-83
2023/05/22 08:29:52;;;;;;;25.45;15.88;;;;;;;;;;6196141;23;20001;-82
2023/05/22 08:32:18;;;;;;;23.23;14.68;;;;;;;;;;6195913;23;20294;-83
2023/05/22 08:34:45;;;;;;;25.58;15.38;;;;;;;;;;6198715;23;20015;-83
2023/05/22 08:37:14;;;;;;;25.30;15.13;;;;;;;;;;6207333;23;20001;-82
2023/05/22 08:39:40;;;;;;;26.02;15.98;;;;;;;;;;6209772;23;20000;-86
2023/05/22 08:42:09;;;;;;;25.75;14.65;;;;;;;;;;6206694;23;20005;-85
2023/05/22 08:44:38;;;;;;;20.38;15.10;;;;;;;;;;6200950;23;20008;-83
2023/05/22 08:47:09;;;;;;;23.17;15.75;;;;;;;;;;6198128;23;20090;-82
2023/05/22 08:49:39;;;;;;;24.00;15.05;;;;;;;;;;6192478;23;20005;-83
2023/05/22 08:52:12;;;;;;;;;;;24.20;99.90;;;;;;6190490;23;20001;-82
2023/05/22 08:54:46;;;;;;;25.05;15.02;;;;;;;;;;6189985;23;20236;-83
2023/05/22 08:57:16;;;;;;;30.25;17.58;;;;;;;;;;6192903;23;20019;-81
2023/05/22 08:59:43;;;;;;;24.83;16.20;;;;;;;;;;6194359;23;20011;-83
2023/05/22 09:02:09;;;;;;;23.92;15.00;;;;;;;;;;6193726;23;20009;-82
2023/05/22 09:04:36;;;;;;;26.55;17.85;;;;;;;;;;6198763;23;20331;-82
2023/05/22 09:07:04;;;;;;;24.73;14.88;;;;;;;;;;6194708;23;20448;-83
2023/05/22 09:09:31;;;;;;;22.58;14.88;;;;;;;;;;6196232;23;20017;-82
2023/05/22 09:11:57;;;;;;;22.88;13.48;;;;;;;;;;6198394;23;20092;-83
2023/05/22 09:14:24;;;;;;;27.58;16.80;;;;;;;;;;6197668;23;20028;-82
2023/05/22 09:16:51;;;;;;;25.35;15.65;;;;;;;;;;6197782;23;20005;-82
2023/05/22 09:19:17;;;;;;;20.30;13.30;;;;;;;;;;6195292;23;20005;-82
2023/05/22 09:21:44;;;;;;;22.35;14.57;;;;;;;;;;6196434;23;20468;-82
2023/05/22 09:24:10;;;;;;;23.70;14.85;;;;;;;;;;6192493;23;20028;-82
2023/05/22 09:26:51;;;;;;;23.27;13.70;;;;;;;;;;6193995;23;20001;-82
2023/05/22 09:29:17;;;;;;;21.15;12.93;;;;;;;;;;6193733;23;20556;-82
2023/05/22 09:31:44;;;;;;;19.85;12.27;;;;;;;;;;6191905;23;20326;-82
2023/05/22 09:34:12;;;;;;;19.55;12.48;;;;;;;;;;6188995;23;20029;-82
2023/05/22 09:36:39;;;;;;;18.80;12.73;;;;;;;;;;6187713;23;20012;-81
2023/05/22 09:39:05;;;;;;;21.20;13.75;;;;;;;;;;6189574;23;20001;-83
2023/05/22 09:41:41;;;;;;;20.33;13.02;;;;;;;;;;6190564;23;20001;-81
2023/05/22 09:44:17;;;;;;;18.20;12.07;;;;;;;;;;6190086;23;20023;-83
2023/05/22 09:47:06;;;;;;;16.73;12.43;;;;;;;;;;6185521;23;20011;-83
2023/05/22 09:49:42;;;;;;;17.70;12.67;;;;;;;;;;6196370;23;20078;-81
2023/05/22 09:52:11;;;;;;;19.67;12.82;;;;;;;;;;6197391;23;20008;-82
2023/05/22 09:54:54;;;;;;;;;;;25.10;99.90;;;;;;6193252;23;20360;-83
2023/05/22 09:57:21;;;;;;;18.98;11.82;;;;;;;;;;6188869;23;19900;-81
2023/05/22 09:59:59;;;;;;;16.65;12.73;;;;;;;;;;6197467;23;19985;-84
2023/05/22 10:02:29;;;;;;;19.05;13.10;;;;;;;;;;6205349;23;20013;-84
2023/05/22 10:04:55;;;;;;;20.20;13.32;;;;;;;;;;6204573;23;20004;-83
2023/05/22 10:07:35;;;;;;;19.20;13.43;;;;;;;;;;6205517;23;20096;-83
2023/05/22 10:13:05;;;;;;;18.92;12.70;;;;;;;;;;6204018;23;20021;-82
2023/05/22 10:15:31;;;;;;;21.23;12.23;;;;;;;;;;6163156;23;20007;-81
2023/05/22 10:17:58;;;;;;;16.77;12.35;;;;;;;;;;6161832;23;20005;-81
2023/05/22 10:20:28;;;;;;;19.08;14.13;;;;;;;;;;6148068;23;20021;-81
2023/05/22 10:22:55;;;;;;;16.50;12.25;;;;;;;;;;6164094;23;20449;-86
2023/05/22 10:25:24;;;;;;;17.58;11.70;;;;;;;;;;6163711;23;20012;-81
2023/05/22 10:27:57;;;;;;;19.23;12.98;;;;;;;;;;6162866;23;20021;-81
2023/05/22 10:30:26;;;;;;;17.08;12.30;;;;;;;;;;6165963;23;20073;-82
2023/05/22 10:33:00;;;;;;;18.20;13.05;;;;;;;;;;6167209;23;20053;-83
2023/05/22 10:35:36;;;;;;;15.35;12.55;;;;;;;;;;6162718;23;20010;-82
2023/05/22 10:38:21;;;;;;;17.23;11.85;;;;;;;;;;6137589;23;20009;-83
2023/05/22 10:40:51;;;;;;;15.82;11.80;;;;;;;;;;6162619;23;20005;-82
2023/05/22 10:43:45;;;;;;;23.17;12.63;;;;;;;;;;6161623;23;20024;-81
2023/05/22 10:46:12;;;;;;;21.90;15.07;;;;;;;;;;6136339;23;20067;-81
2023/05/22 10:48:46;;;;;;;16.60;12.15;;;;;;;;;;6135749;23;20450;-82
2023/05/22 10:51:21;;;;;;;23.27;17.63;;;;;;;;;;6135519;23;20349;-81
2023/05/22 10:54:09;;;;;;;18.25;13.45;;;;;;;;;;6160969;23;20012;-82
2023/05/22 10:56:37;;;;;;;19.00;12.30;;;;;;;;;;6132527;23;20005;-83
2023/05/22 10:59:06;;;;;;;18.95;10.95;;;;;;;;;;6134228;23;20504;-81
2023/05/22 11:01:39;;;;;;;13.55;9.98;;;;;;;;;;6134660;23;20453;-80
2023/05/22 11:04:14;;;;;;;13.60;10.38;;;;;;;;;;6161096;23;20396;-81
2023/05/22 11:07:04;;;;;;;16.10;10.93;;;27.40;96.70;;;;;;6132357;23;20037;-81
2023/05/22 11:10:15;;;;;;;14.88;10.60;;;;;;;;;;6137330;23;20021;-82
2023/05/22 11:13:15;;;;;;;14.02;10.73;;;;;;;;;;6132826;23;20025;-82
2023/05/22 11:15:45;;;;;;;15.00;11.88;;;;;;;;;;6127244;23;20081;-82
2023/05/22 11:18:17;;;;;;;16.75;11.88;;;;;;;;;;6153894;23;20377;-82
2023/05/22 11:20:49;;;;;;;12.90;10.75;;;;;;;;;;6132144;23;20012;-81
2023/05/22 11:26:24;;;;;;;15.30;10.50;;;;;;;;;;6126082;23;20046;-82
2023/05/22 11:28:52;;;;;;;15.52;10.77;;;;;;;;;;6120788;23;20008;-83
2023/05/22 11:31:19;;;;;;;12.05;10.38;;;;;;;;;;6159838;23;20049;-81
2023/05/22 11:33:47;;;;;;;12.00;10.70;;;;;;;;;;6162387;23;20005;-82
2023/05/22 11:36:17;;;;;;;13.82;10.38;;;;;;;;;;6137229;23;20073;-83
2023/05/22 11:39:47;;;;;;;16.70;10.60;;;26.00;97.90;;;;;;6158372;23;20033;-82
2023/05/22 11:42:37;;;;;;;12.20;10.32;;;;;;;;;;6159811;23;20345;-81
2023/05/22 11:45:16;;;;;;;17.02;12.50;;;;;;;;;;6134233;23;20005;-82
2023/05/22 11:50:23;;;;;;;11.52;8.23;;;;;;;;;;6149384;23;20025;-83
2023/05/22 11:52:49;;;;;;;12.63;9.77;;;;;;;;;;6200987;23;20009;-82
2023/05/22 11:55:16;;;;;;;14.15;9.23;;;;;;;;;;6176614;23;20005;-82
2023/05/22 11:57:43;;;;;;;12.55;9.80;;;;;;;;;;6177019;23;20001;-83
2023/05/22 12:00:13;;;;;;;14.57;10.38;;;;;;;;;;6204142;23;19987;-81
2023/05/22 12:02:44;;;;;;;12.57;9.30;;;;;;;;;;6175813;23;20016;-82
2023/05/22 12:05:15;;;;;;;11.73;9.30;;;;;;;;;;6204091;23;20323;-82
2023/05/22 12:07:41;;;;;;;9.98;8.40;;;;;;;;;;6156973;23;20005;-82
2023/05/22 12:10:07;;;;;;;10.18;8.27;;;;;;;;;;6185521;23;19985;-83
2023/05/22 12:12:35;;;;;;;12.35;9.07;;;;;;;;;;6189855;23;19989;-81
2023/05/22 12:15:04;;;;;;;11.30;8.35;;;;;;;;;;6209340;23;20001;-81
2023/05/22 12:17:30;;;;;;;11.60;8.20;;;;;;;;;;6207640;23;20005;-80
2023/05/22 12:19:58;;;;;;;13.00;9.43;;;;;;;;;;6180662;23;20001;-80
2023/05/22 12:22:28;;;;;;;11.63;9.65;;;;;;;;;;6178678;23;19997;-81
2023/05/22 12:24:55;;;;;;;17.23;10.27;;;;;;;;;;6161576;23;20435;-80
2023/05/22 12:27:44;;;;;;;10.63;9.52;;;26.60;95.50;;;;;;6161944;23;20000;-82
2023/05/22 12:30:13;;;;;;;11.10;9.55;;;;;;;;;;6196631;23;20052;-83
2023/05/22 12:32:40;;;;;;;16.50;10.27;;;;;;;;;;6194242;23;20435;-82
2023/05/22 12:35:07;;;;;;;15.63;9.77;;;;;;;;;;6168256;23;20036;-82
2023/05/22 12:37:34;;;;;;;15.55;10.60;;;;;;;;;;6174799;23;20001;-83
2023/05/22 12:40:01;;;;;;;15.43;10.57;;;;;;;;;;6174893;23;20009;-81
2023/05/22 12:42:28;;;;;;;13.63;10.75;;;;;;;;;;6165894;23;20005;-82
2023/05/22 12:44:56;;;;;;;15.38;9.93;;;;;;;;;;6196898;23;20020;-81
2023/05/22 12:47:23;;;;;;;12.93;11.15;;;;;;;;;;6194303;23;20028;-82
2023/05/22 12:49:50;;;;;;;13.00;10.23;;;;;;;;;;6167144;23;20019;-82
2023/05/22 12:52:16;;;;;;;14.10;11.27;;;;;;;;;;6171451;23;20012;-81
2023/05/22 12:54:45;;;;;;;15.50;10.95;;;;;;;;;;6195975;23;20068;-81
2023/05/22 12:57:11;;;;;;;16.17;11.82;;;;;;;;;;6169100;23;20023;-81
2023/05/22 13:08:35;;;;;;;16.23;10.95;;;26.10;96.70;;;;;;6030495;23;20431;-82
2023/05/22 13:11:26;;;;;;;;;;;;;;;;;;;;;
2023/05/22 13:14:41;;;;;;;;;;;;;;;;;;;;;
2023/05/22 13:17:09;;;;;;;17.27;11.43;;;;;;;;;;6110987;23;20006;-82
2023/05/22 13:19:44;;;;;;;20.05;13.07;;;;;;;;;;6107596;23;20011;-81
2023/05/22 13:22:11;;;;;;;13.90;10.93;;;;;;;;;;6102431;23;20077;-81
2023/05/22 13:24:38;;;;;;;18.52;11.23;;;;;;;;;;6100402;23;20002;-81
2023/05/22 13:27:10;;;;;;;15.43;10.35;;;;;;;;;;6052494;23;20006;-81
2023/05/22 13:32:17;;;;;;;15.38;10.45;;;;;;;;;;6140986;23;20017;-81
2023/05/22 13:34:43;;;;;;;;;;;23.50;99.90;;;;;;6158665;23;20006;-81
2023/05/22 13:37:09;;;;;;;13.82;10.77;;;;;;;;;;6161004;23;19905;-81
2023/05/22 13:39:39;;;;;;;15.57;11.57;;;;;;;;;;6160982;23;20086;-81
2023/05/22 13:42:08;;;;;;;17.20;11.98;;;;;;;;;;6162812;23;20001;-81
2023/05/22 13:45:19;;;;;;;16.42;11.75;;;;;;;;;;6163858;23;20008;-80
2023/05/22 13:47:21;;;;;;;14.05;10.88;;;;;;;;;;6153182;23;20013;-82
2023/05/22 13:49:51;;;;;;;13.77;10.23;;;;;;;;;;6166538;23;20013;-81
2023/05/22 13:52:24;;;;;;;13.50;9.85;;;;;;;;;;6168502;23;20064;-81
2023/05/22 13:54:54;;;;;;;12.38;8.55;;;;;;;;;;6161768;23;20016;-81
2023/05/22 13:57:25;;;;;;;11.50;8.07;;;;;;;;;;6164435;23;20012;-81
2023/05/22 14:06:09;;;;;;;11.35;8.23;;;;;;;;;;6161081;23;20011;-81
2023/05/22 14:08:41;;;;;;;10.43;8.20;;;;;;;;;;6159538;23;20002;-80
2023/05/22 14:11:11;;;;;;;11.63;8.38;;;;;;;;;;6160501;23;20009;-80
2023/05/22 14:13:40;;;;;;;11.13;8.82;;;;;;;;;;6159511;23;20002;-82
2023/05/22 14:16:06;;;;;;;10.82;8.48;;;;;;;;;;6158346;23;19998;-82
2023/05/22 14:28:48;;;;;;;10.80;9.70;;;;;;;;;;6224865;23;20027;-85
2023/05/22 14:31:14;;;;;;;10.65;9.40;;;;;;;;;;6197241;23;20008;-82
2023/05/22 14:33:40;;;;;;;12.10;9.48;;;;;;;;;;6194605;23;20005;-83
2023/05/22 14:36:06;;;;;;;10.70;9.40;;;;;;;;;;6192872;23;20089;-84
2023/05/22 14:38:35;;;;;;;11.90;9.70;;;;;;;;;;6191909;23;20497;-83
2023/05/22 14:41:01;;;;;;;11.65;10.40;;;;;;;;;;6191153;23;20084;-83
2023/05/22 14:43:27;;;;;;;10.98;8.95;;;;;;;;;;6191809;23;20001;-82
2023/05/22 14:45:54;;;;;;;12.07;8.98;;;23.80;99.90;;;;;;6191734;23;20043;-83
2023/05/22 14:48:24;;;;;;;12.60;10.45;;;24.10;99.90;;;;;;6218933;23;20001;-81
2023/05/22 14:50:51;;;;;;;11.77;9.30;;;24.30;99.90;;;;;;6191828;23;20008;-83
2023/05/22 14:53:17;;;;;;;11.35;8.90;;;;;;;;;;6218323;23;20417;-82
2023/05/22 14:55:43;;;;;;;14.13;10.30;;;24.30;99.90;;;;;;6191869;23;20035;-84
2023/05/22 14:58:19;;;;;;;13.27;9.70;;;24.30;99.90;;;;;;6191847;23;20386;-85
2023/05/22 15:04:11;;;;;;;11.23;9.27;;;;;;;;;;6182372;23;20019;-84
2023/05/22 15:06:37;;;;;;;12.20;8.98;;;;;;;;;;6189295;23;20007;-85
2023/05/22 15:09:03;;;;;;;13.05;8.80;;;;;;;;;;6191349;23;20004;-85
2023/05/22 15:11:29;;;;;;;11.95;9.15;;;;;;;;;;6219013;23;20027;-85
2023/05/22 15:13:55;;;;;;;11.90;9.35;;;;;;;;;;6214591;23;20009;-83
2023/05/22 15:16:21;;;;;;;11.02;8.80;;;;;;;;;;6218482;23;20004;-86
2023/05/22 15:18:47;;;;;;;10.80;9.18;;;;;;;;;;6191437;23;20008;-85
2023/05/22 15:21:13;;;;;;;13.05;9.70;;;;;;;;;;6188614;23;20004;-84
2023/05/22 15:23:39;;;;;;;10.23;8.73;;;;;;;;;;6191002;23;20012;-86
2023/05/22 15:26:05;;;;;;;12.68;10.88;;;;;;;;;;6190105;23;20005;-85
2023/05/22 15:28:31;;;;;;;11.15;9.50;;;;;;;;;;6188615;23;20017;-84
2023/05/22 15:30:57;;;;;;;11.23;9.68;;;;;;;;;;6217313;23;20084;-83
2023/05/22 15:33:24;;;;;;;13.05;9.80;;;;;;;;;;6216770;23;20269;-85
2023/05/22 15:35:50;;;;;;;11.65;9.70;;;;;;;;;;6188042;23;20028;-82
2023/05/22 15:38:17;;;;;;;13.60;10.68;;;;;;;;;;6189846;23;20019;-83
2023/05/22 15:40:43;;;;;;;19.20;12.98;;;;;;;;;;6214684;23;20004;-88
2023/05/22 15:43:12;;;;;;;20.83;13.02;;;;;;;;;;6188802;23;20287;-82
2023/05/22 15:45:45;;;;;;;25.37;15.77;;;23.10;99.90;;;;;;6192649;23;20087;-83
2023/05/22 15:48:13;;;;;;;15.20;11.68;;;;;;;;;;6218415;23;20008;-82
2023/05/22 15:50:45;;;;;;;24.80;15.68;;;;;;;;;;6221190;23;20072;-83
2023/05/22 15:53:15;;;;;;;23.60;16.33;;;;;;;;;;6225349;23;20008;-80
2023/05/22 15:56:00;;;;;;;21.45;14.80;;;;;;;;;;6192851;23;20005;-82
2023/05/22 15:58:29;;;;;;;25.48;15.85;;;;;;;;;;6198074;23;20001;-83
2023/05/22 16:11:03;;;;;;;;;;;;;;;;;;;;;
2023/05/22 16:13:30;;;;;;;22.23;15.95;;;;;;;;;;6158021;23;20028;-86
2023/05/22 16:15:56;;;;;;;23.00;16.58;;;;;;;;;;6199591;23;20009;-86
2023/05/22 16:18:22;;;;;;;23.35;17.83;;;;;;;;;;6228492;23;20060;-86
2023/05/22 16:20:49;;;;;;;24.00;15.90;;;;;;;;;;6198754;23;20011;-86
2023/05/22 16:23:15;;;;;;;23.42;16.80;;;;;;;;;;6197297;23;20000;-87
2023/05/22 16:25:41;;;;;;;22.05;16.23;;;;;;;;;;6199637;23;20039;-86
2023/05/22 16:28:07;;;;;;;19.25;15.35;;;;;;;;;;6226260;23;20005;-85
2023/05/22 16:30:33;;;;;;;22.60;15.52;;;;;;;;;;6196667;23;20769;-86
2023/05/22 16:32:59;;;;;;;20.73;16.15;;;;;;;;;;6200005;23;20013;-87
2023/05/22 16:35:25;;;;;;;23.48;16.70;;;;;;;;;;6199860;23;20012;-87
2023/05/22 16:37:51;;;;;;;18.65;14.00;;;;;;;;;;6225078;23;20004;-87
2023/05/22 16:40:17;;;;;;;16.58;12.25;;;;;;;;;;6202529;23;20082;-87
2023/05/22 16:42:43;;;;;;;19.55;13.18;;;;;;;;;;6229494;23;20031;-87
2023/05/22 16:45:09;;;;;;;21.13;13.75;;;18.60;99.90;;;;;;6225770;23;20076;-86
2023/05/22 16:47:35;;;;;;;18.70;12.15;;;18.60;99.90;;;;;;6201639;23;20000;-86
2023/05/22 16:50:01;;;;;;;18.75;12.38;;;;;;;;;;6201620;23;20007;-87
2023/05/22 16:52:27;;;;;;;18.58;12.38;;;;;;;;;;6225743;23;20013;-87
2023/05/22 16:54:53;;;;;;;19.33;13.60;;;;;;;;;;6200139;23;20024;-85
2023/05/22 16:57:19;;;;;;;22.80;13.80;;;;;;;;;;6200127;23;20004;-87
2023/05/22 16:59:45;;;;;;;21.13;13.93;;;18.80;99.90;;;;;;6196837;23;20009;-87
2023/05/22 17:02:11;;;;;;;19.73;14.52;;;;;;;;;;6199424;23;20024;-88
2023/05/22 17:04:37;;;;;;;23.15;13.88;;;;;;;;;;6196584;23;20027;-89
2023/05/22 17:07:04;;;;;;;19.30;13.73;;;;;;;;;;6196112;23;20008;-87
2023/05/22 17:51:32;;;;;;;16.58;12.68;;;;;;;;;;6202637;23;20056;-81
